sensor_id;sensor_type;location;lat;lon;timestamp;pressure;altitude;pressure_sealevel;temperature;humidity
1401;BME280;46518;48.842;8.926;2023-03-14T00:00:37;95494.91;;;8.50;100.00
1401;BME280;46518;48.842;8.926;2023-03-14T00:03:05;95521.13;;;8.50;100.00
1401;BME280;46518;48.842;8.926;2023-03-14T00:05:35;95521.38;;;8.48;100.00
1401;BME280;46518;48.842;8.926;2023-03-14T00:08:03;95533.69;;;8.53;100.00
1401;BME280;46518;48.842;8.926;2023-03-14T00:10:32;95522.44;;;8.52;100.00
1401;BME280;46518;48.842;8.926;2023-03-14T00:12:59;95507.75;;;8.51;100.00
1401;BME280;46518;48.842;8.926;2023-03-14T00:15:28;95514.81;;;8.51;100.00
1401;BME280;46518;48.842;8.926;2023-03-14T00:17:56;95522.94;;;8.54;100.00
1401;BME280;46518;48.842;8.926;2023-03-14T00:20:24;95514.00;;;8.55;100.00
1401;BME280;46518;48.842;8.926;2023-03-14T00:22:53;95517.69;;;8.54;100.00
1401;BME280;46518;48.842;8.926;2023-03-14T00:25:21;95521.63;;;8.57;100.00
1401;BME280;46518;48.842;8.926;2023-03-14T00:27:50;95516.13;;;8.53;100.00
1401;BME280;46518;48.842;8.926;2023-03-14T00:30:18;95510.34;;;8.56;100.00
1401;BME280;46518;48.842;8.926;2023-03-14T00:32:47;95521.34;;;8.53;100.00
1401;BME280;46518;48.842;8.926;2023-03-14T00:35:15;95516.66;;;8.50;100.00
1401;BME280;46518;48.842;8.926;2023-03-14T00:37:43;95512.44;;;8.54;100.00
1401;BME280;46518;48.842;8.926;2023-03-14T00:40:13;95500.16;;;8.50;100.00
1401;BME280;46518;48.842;8.926;2023-03-14T00:42:41;95500.16;;;8.50;100.00
1401;BME280;46518;48.842;8.926;2023-03-14T00:45:10;95496.47;;;8.51;100.00
1401;BME280;46518;48.842;8.926;2023-03-14T00:47:38;95504.38;;;8.46;100.00
1401;BME280;46518;48.842;8.926;2023-03-14T00:50:08;95502.25;;;8.48;100.00
1401;BME280;46518;48.842;8.926;2023-03-14T00:52:38;95513.75;;;8.57;100.00
1401;BME280;46518;48.842;8.926;2023-03-14T00:55:06;95510.84;;;8.58;100.00
1401;BME280;46518;48.842;8.926;2023-03-14T00:57:36;95516.59;;;8.60;100.00
1401;BME280;46518;48.842;8.926;2023-03-14T01:00:05;95521.72;;;8.81;100.00
1401;BME280;46518;48.842;8.926;2023-03-14T01:02:37;95543.97;;;8.89;100.00
1401;BME280;46518;48.842;8.926;2023-03-14T01:05:06;95542.41;;;8.88;100.00
1401;BME280;46518;48.842;8.926;2023-03-14T01:07:34;95542.66;;;8.86;100.00
1401;BME280;46518;48.842;8.926;2023-03-14T01:10:06;95532.69;;;8.88;100.00
1401;BME280;46518;48.842;8.926;2023-03-14T01:12:37;95520.16;;;8.80;100.00
1401;BME280;46518;48.842;8.926;2023-03-14T01:15:06;95519.41;;;8.74;100.00
1401;BME280;46518;48.842;8.926;2023-03-14T01:17:35;95518.91;;;8.72;100.00
1401;BME280;46518;48.842;8.926;2023-03-14T01:20:05;95515.72;;;8.75;100.00
1401;BME280;46518;48.842;8.926;2023-03-14T01:22:36;95512.31;;;8.75;100.00
1401;BME280;46518;48.842;8.926;2023-03-14T01:25:06;95512.78;;;8.87;100.00
1401;BME280;46518;48.842;8.926;2023-03-14T01:27:36;95493.84;;;8.90;100.00
1401;BME280;46518;48.842;8.926;2023-03-14T01:30:06;95474.66;;;8.95;100.00
1401;BME280;46518;48.842;8.926;2023-03-14T01:32:35;95472.22;;;9.09;100.00
1401;BME280;46518;48.842;8.926;2023-03-14T01:35:04;95458.38;;;8.98;100.00
1401;BME280;46518;48.842;8.926;2023-03-14T01:37:33;95458.72;;;8.91;100.00
1401;BME280;46518;48.842;8.926;2023-03-14T01:40:03;95436.78;;;8.77;100.00
1401;BME280;46518;48.842;8.926;2023-03-14T01:42:32;95428.34;;;8.80;100.00
1401;BME280;46518;48.842;8.926;2023-03-14T01:45:02;95421.34;;;8.70;100.00
1401;BME280;46518;48.842;8.926;2023-03-14T01:47:30;95422.88;;;8.76;100.00
1401;BME280;46518;48.842;8.926;2023-03-14T01:50:02;95432.09;;;8.74;100.00
1401;BME280;46518;48.842;8.926;2023-03-14T01:52:33;95429.25;;;8.65;100.00
1401;BME280;46518;48.842;8.926;2023-03-14T01:55:06;95424.28;;;8.63;100.00
1401;BME280;46518;48.842;8.926;2023-03-14T01:57:39;95424.31;;;8.58;100.00
1401;BME280;46518;48.842;8.926;2023-03-14T02:00:14;95428.53;;;8.59;100.00
1401;BME280;46518;48.842;8.926;2023-03-14T02:02:49;95426.94;;;8.58;100.00
1401;BME280;46518;48.842;8.926;2023-03-14T02:05:22;95431.13;;;8.59;100.00
1401;BME280;46518;48.842;8.926;2023-03-14T02:07:59;95430.63;;;8.57;100.00
1401;BME280;46518;48.842;8.926;2023-03-14T02:10:38;95428.00;;;8.57;100.00
1401;BME280;46518;48.842;8.926;2023-03-14T02:13:10;95428.59;;;8.49;100.00
1401;BME280;46518;48.842;8.926;2023-03-14T02:16:00;95422.28;;;8.50;100.00
1401;BME280;46518;48.842;8.926;2023-03-14T02:18:43;95422.28;;;8.50;100.00
1401;BME280;46518;48.842;8.926;2023-03-14T02:21:23;95413.94;;;8.43;100.00
1401;BME280;46518;48.842;8.926;2023-03-14T02:24:05;95418.91;;;8.45;100.00
1401;BME280;46518;48.842;8.926;2023-03-14T02:29:42;95389.53;;;8.48;100.00
1401;BME280;46518;48.842;8.926;2023-03-14T02:32:14;95396.09;;;8.45;100.00
1401;BME280;46518;48.842;8.926;2023-03-14T02:34:43;95397.41;;;8.48;100.00
1401;BME280;46518;48.842;8.926;2023-03-14T02:37:15;95390.59;;;8.47;100.00
1401;BME280;46518;48.842;8.926;2023-03-14T02:39:45;95393.75;;;8.43;100.00
1401;BME280;46518;48.842;8.926;2023-03-14T02:42:17;95392.72;;;8.45;100.00
1401;BME280;46518;48.842;8.926;2023-03-14T02:44:55;95381.97;;;8.41;100.00
1401;BME280;46518;48.842;8.926;2023-03-14T02:47:30;95367.53;;;8.38;100.00
1401;BME280;46518;48.842;8.926;2023-03-14T02:50:03;95384.56;;;8.46;100.00
1401;BME280;46518;48.842;8.926;2023-03-14T02:52:32;95371.47;;;8.41;100.00
1401;BME280;46518;48.842;8.926;2023-03-14T02:55:00;95360.53;;;8.34;100.00
1401;BME280;46518;48.842;8.926;2023-03-14T02:57:28;95357.34;;;8.37;100.00
1401;BME280;46518;48.842;8.926;2023-03-14T02:59:59;95353.44;;;8.39;100.00
1401;BME280;46518;48.842;8.926;2023-03-14T03:02:32;95329.28;;;8.37;100.00
1401;BME280;46518;48.842;8.926;2023-03-14T03:05:01;95336.38;;;8.42;100.00
1401;BME280;46518;48.842;8.926;2023-03-14T03:07:29;95336.59;;;8.46;100.00
1401;BME280;46518;48.842;8.926;2023-03-14T03:09:58;95323.78;;;8.39;100.00
1401;BME280;46518;48.842;8.926;2023-03-14T03:12:27;95316.94;;;8.43;100.00
1401;BME280;46518;48.842;8.926;2023-03-14T03:14:55;95313.03;;;8.40;100.00
1401;BME280;46518;48.842;8.926;2023-03-14T03:17:24;95308.53;;;8.46;100.00
1401;BME280;46518;48.842;8.926;2023-03-14T03:19:52;95292.31;;;8.44;100.00
1401;BME280;46518;48.842;8.926;2023-03-14T03:22:20;95292.50;;;8.53;100.00
1401;BME280;46518;48.842;8.926;2023-03-14T03:24:49;95293.06;;;8.50;100.00
1401;BME280;46518;48.842;8.926;2023-03-14T03:27:17;95300.13;;;8.49;100.00
1401;BME280;46518;48.842;8.926;2023-03-14T03:29:45;95273.41;;;8.47;100.00
1401;BME280;46518;48.842;8.926;2023-03-14T03:32:14;95286.78;;;8.46;100.00
1401;BME280;46518;48.842;8.926;2023-03-14T03:34:43;95288.41;;;8.41;100.00
1401;BME280;46518;48.842;8.926;2023-03-14T03:37:12;95286.56;;;8.42;100.00
1401;BME280;46518;48.842;8.926;2023-03-14T03:39:41;95274.53;;;8.36;100.00
1401;BME280;46518;48.842;8.926;2023-03-14T03:42:11;95267.72;;;8.35;100.00
1401;BME280;46518;48.842;8.926;2023-03-14T03:44:39;95258.78;;;8.36;100.00
1401;BME280;46518;48.842;8.926;2023-03-14T03:47:09;95253.34;;;8.32;100.00
1401;BME280;46518;48.842;8.926;2023-03-14T03:49:37;95250.41;;;8.39;100.00
1401;BME280;46518;48.842;8.926;2023-03-14T03:52:09;95254.59;;;8.40;100.00
1401;BME280;46518;48.842;8.926;2023-03-14T03:54:37;95254.38;;;8.36;100.00
1401;BME280;46518;48.842;8.926;2023-03-14T03:57:06;95259.91;;;8.30;100.00
1401;BME280;46518;48.842;8.926;2023-03-14T03:59:34;95255.41;;;8.35;100.00
1401;BME280;46518;48.842;8.926;2023-03-14T04:02:02;95261.47;;;8.31;100.00
1401;BME280;46518;48.842;8.926;2023-03-14T04:04:31;95263.34;;;8.25;100.00
1401;BME280;46518;48.842;8.926;2023-03-14T04:07:00;95254.41;;;8.31;100.00
1401;BME280;46518;48.842;8.926;2023-03-14T04:09:30;95257.28;;;8.30;100.00
1401;BME280;46518;48.842;8.926;2023-03-14T04:12:24;95256.41;;;8.45;98.54
1401;BME280;46518;48.842;8.926;2023-03-14T04:15:07;95258.63;;;8.27;98.04
1401;BME280;46518;48.842;8.926;2023-03-14T04:17:38;95250.94;;;8.36;98.75
1401;BME280;46518;48.842;8.926;2023-03-14T04:20:08;95256.47;;;8.34;98.00
1401;BME280;46518;48.842;8.926;2023-03-14T04:22:39;95259.91;;;8.30;97.85
1401;BME280;46518;48.842;8.926;2023-03-14T04:25:12;95252.59;;;8.27;98.01
1401;BME280;46518;48.842;8.926;2023-03-14T04:27:44;95254.44;;;8.26;96.85
1401;BME280;46518;48.842;8.926;2023-03-14T04:30:18;95238.69;;;8.26;97.54
1401;BME280;46518;48.842;8.926;2023-03-14T04:32:52;95242.38;;;8.25;96.64
1401;BME280;46518;48.842;8.926;2023-03-14T04:35:23;95256.06;;;8.22;96.40
1401;BME280;46518;48.842;8.926;2023-03-14T04:37:56;95238.47;;;8.23;95.60
1401;BME280;46518;48.842;8.926;2023-03-14T04:40:26;95233.75;;;8.25;96.76
1401;BME280;46518;48.842;8.926;2023-03-14T04:42:59;95222.97;;;8.31;95.97
1401;BME280;46518;48.842;8.926;2023-03-14T04:45:28;95221.16;;;8.27;94.73
1401;BME280;46518;48.842;8.926;2023-03-14T04:47:59;95226.88;;;8.34;95.26
1401;BME280;46518;48.842;8.926;2023-03-14T04:50:27;95227.91;;;8.33;94.89
1401;BME280;46518;48.842;8.926;2023-03-14T04:52:55;95227.63;;;8.34;94.63
1401;BME280;46518;48.842;8.926;2023-03-14T04:55:25;95221.16;;;8.27;94.13
1401;BME280;46518;48.842;8.926;2023-03-14T04:57:55;95230.34;;;8.53;93.66
1401;BME280;46518;48.842;8.926;2023-03-14T05:00:24;95220.78;;;8.38;93.87
1401;BME280;46518;48.842;8.926;2023-03-14T05:03:14;95216.88;;;8.36;94.44
1401;BME280;46518;48.842;8.926;2023-03-14T05:05:55;95208.28;;;8.30;94.51
1401;BME280;46518;48.842;8.926;2023-03-14T05:08:42;95213.97;;;8.37;93.82
1401;BME280;46518;48.842;8.926;2023-03-14T05:11:31;95214.34;;;8.26;93.62
1401;BME280;46518;48.842;8.926;2023-03-14T05:14:03;95225.59;;;8.31;93.09
1401;BME280;46518;48.842;8.926;2023-03-14T05:16:31;95211.72;;;8.26;94.09
1401;BME280;46518;48.842;8.926;2023-03-14T05:19:35;95202.91;;;8.16;94.64
1401;BME280;46518;48.842;8.926;2023-03-14T05:22:22;95191.69;;;8.11;95.09
1401;BME280;46518;48.842;8.926;2023-03-14T05:25:00;95182.94;;;8.20;93.56
1401;BME280;46518;48.842;8.926;2023-03-14T05:27:33;95193.72;;;8.19;94.06
1401;BME280;46518;48.842;8.926;2023-03-14T05:30:19;95194.72;;;8.23;93.27
1401;BME280;46518;48.842;8.926;2023-03-14T05:33:17;95202.31;;;8.25;93.02
1401;BME280;46518;48.842;8.926;2023-03-14T05:36:10;95201.59;;;8.19;94.48
1401;BME280;46518;48.842;8.926;2023-03-14T05:38:57;95194.22;;;8.21;94.66
1401;BME280;46518;48.842;8.926;2023-03-14T05:41:43;95191.72;;;8.35;93.71
1401;BME280;46518;48.842;8.926;2023-03-14T05:44:36;95192.59;;;8.25;94.51
1401;BME280;46518;48.842;8.926;2023-03-14T05:47:17;95184.53;;;8.21;94.27
1401;BME280;46518;48.842;8.926;2023-03-14T05:50:00;95191.22;;;8.33;94.66
1401;BME280;46518;48.842;8.926;2023-03-14T05:52:46;95170.25;;;8.33;93.27
1401;BME280;46518;48.842;8.926;2023-03-14T05:55:33;95174.22;;;8.30;93.66
1401;BME280;46518;48.842;8.926;2023-03-14T05:58:15;95165.00;;;8.33;93.23
1401;BME280;46518;48.842;8.926;2023-03-14T06:00:50;95162.44;;;8.28;93.38
1401;BME280;46518;48.842;8.926;2023-03-14T06:03:35;95153.25;;;8.30;92.35
1401;BME280;46518;48.842;8.926;2023-03-14T06:06:05;95161.88;;;8.31;93.07
1401;BME280;46518;48.842;8.926;2023-03-14T06:08:33;95143.78;;;8.34;92.00
1401;BME280;46518;48.842;8.926;2023-03-14T06:11:03;95150.66;;;8.54;91.26
1401;BME280;46518;48.842;8.926;2023-03-14T06:13:32;95146.09;;;8.36;91.56
1401;BME280;46518;48.842;8.926;2023-03-14T06:16:01;95149.19;;;8.43;90.85
1401;BME280;46518;48.842;8.926;2023-03-14T06:18:29;95162.56;;;8.66;91.17
1401;BME280;46518;48.842;8.926;2023-03-14T06:20:58;95159.34;;;8.74;89.39
1401;BME280;46518;48.842;8.926;2023-03-14T06:23:27;95162.88;;;8.64;88.77
1401;BME280;46518;48.842;8.926;2023-03-14T06:25:58;95154.50;;;8.62;88.28
1401;BME280;46518;48.842;8.926;2023-03-14T06:28:26;95163.84;;;8.68;88.75
1401;BME280;46518;48.842;8.926;2023-03-14T06:30:58;95170.19;;;8.86;87.19
1401;BME280;46518;48.842;8.926;2023-03-14T06:33:33;95163.78;;;8.73;87.06
1401;BME280;46518;48.842;8.926;2023-03-14T06:36:02;95151.06;;;8.85;87.13
1401;BME280;46518;48.842;8.926;2023-03-14T06:38:32;95161.41;;;8.77;86.73
1401;BME280;46518;48.842;8.926;2023-03-14T06:41:03;95162.94;;;8.59;87.36
1401;BME280;46518;48.842;8.926;2023-03-14T06:43:39;95165.94;;;8.71;88.82
1401;BME280;46518;48.842;8.926;2023-03-14T06:46:08;95168.66;;;9.04;87.16
1401;BME280;46518;48.842;8.926;2023-03-14T06:48:40;95161.53;;;8.85;86.82
1401;BME280;46518;48.842;8.926;2023-03-14T06:51:08;95163.31;;;8.90;85.60
1401;BME280;46518;48.842;8.926;2023-03-14T06:53:36;95166.00;;;8.85;87.62
1401;BME280;46518;48.842;8.926;2023-03-14T06:56:06;95157.50;;;8.93;87.14
1401;BME280;46518;48.842;8.926;2023-03-14T06:58:35;95159.38;;;9.12;85.99
1401;BME280;46518;48.842;8.926;2023-03-14T07:01:10;95164.19;;;9.04;86.40
1401;BME280;46518;48.842;8.926;2023-03-14T07:03:45;95159.97;;;9.09;87.65
1401;BME280;46518;48.842;8.926;2023-03-14T07:06:13;95162.44;;;9.19;86.66
1401;BME280;46518;48.842;8.926;2023-03-14T07:08:41;95166.03;;;9.23;87.44
1401;BME280;46518;48.842;8.926;2023-03-14T07:11:10;95170.84;;;9.16;86.63
1401;BME280;46518;48.842;8.926;2023-03-14T07:13:39;95179.22;;;9.18;87.66
1401;BME280;46518;48.842;8.926;2023-03-14T07:16:08;95169.22;;;9.20;86.97
1401;BME280;46518;48.842;8.926;2023-03-14T07:18:37;95172.06;;;9.23;85.42
1401;BME280;46518;48.842;8.926;2023-03-14T07:21:08;95172.72;;;9.34;86.41
1401;BME280;46518;48.842;8.926;2023-03-14T07:23:37;95173.84;;;9.47;86.59
1401;BME280;46518;48.842;8.926;2023-03-14T07:26:07;95175.22;;;9.58;86.18
1401;BME280;46518;48.842;8.926;2023-03-14T07:28:39;95182.56;;;9.61;84.75
1401;BME280;46518;48.842;8.926;2023-03-14T07:31:11;95177.25;;;9.80;84.34
1401;BME280;46518;48.842;8.926;2023-03-14T07:33:40;95180.22;;;9.92;83.84
1401;BME280;46518;48.842;8.926;2023-03-14T07:36:10;95187.44;;;10.01;82.36
1401;BME280;46518;48.842;8.926;2023-03-14T07:38:42;95191.91;;;10.00;83.12
1401;BME280;46518;48.842;8.926;2023-03-14T07:41:10;95183.19;;;10.19;82.75
1401;BME280;46518;48.842;8.926;2023-03-14T07:44:01;95194.41;;;10.24;80.61
1401;BME280;46518;48.842;8.926;2023-03-14T07:46:29;95193.41;;;10.20;81.90
1401;BME280;46518;48.842;8.926;2023-03-14T07:48:57;95189.16;;;10.24;81.32
1401;BME280;46518;48.842;8.926;2023-03-14T07:51:27;95201.78;;;10.22;82.74
1401;BME280;46518;48.842;8.926;2023-03-14T07:53:55;95197.63;;;10.21;83.05
1401;BME280;46518;48.842;8.926;2023-03-14T07:56:24;95196.59;;;10.36;82.02
1401;BME280;46518;48.842;8.926;2023-03-14T07:58:52;95201.47;;;10.43;84.62
1401;BME280;46518;48.842;8.926;2023-03-14T08:01:20;95197.47;;;10.45;81.15
1401;BME280;46518;48.842;8.926;2023-03-14T08:03:48;95192.41;;;10.35;79.52
1401;BME280;46518;48.842;8.926;2023-03-14T08:06:17;95185.59;;;10.48;79.50
1401;BME280;46518;48.842;8.926;2023-03-14T08:08:46;95203.34;;;10.56;78.66
1401;BME280;46518;48.842;8.926;2023-03-14T08:11:15;95195.25;;;10.39;80.87
1401;BME280;46518;48.842;8.926;2023-03-14T08:13:43;95194.06;;;10.31;78.09
1401;BME280;46518;48.842;8.926;2023-03-14T08:16:16;95192.78;;;10.28;78.58
1401;BME280;46518;48.842;8.926;2023-03-14T08:18:45;95201.50;;;10.24;78.59
1401;BME280;46518;48.842;8.926;2023-03-14T08:21:13;95197.06;;;10.38;78.27
1401;BME280;46518;48.842;8.926;2023-03-14T08:23:41;95201.94;;;10.45;78.01
1401;BME280;46518;48.842;8.926;2023-03-14T08:26:11;95190.75;;;10.53;79.77
1401;BME280;46518;48.842;8.926;2023-03-14T08:28:39;95200.50;;;10.80;77.70
1401;BME280;46518;48.842;8.926;2023-03-14T08:31:07;95211.34;;;10.78;75.20
1401;BME280;46518;48.842;8.926;2023-03-14T08:33:35;95212.50;;;10.86;75.98
1401;BME280;46518;48.842;8.926;2023-03-14T08:36:04;95201.75;;;10.96;74.37
1401;BME280;46518;48.842;8.926;2023-03-14T08:38:33;95210.75;;;10.82;74.49
1401;BME280;46518;48.842;8.926;2023-03-14T08:41:02;95213.94;;;11.06;74.84
1401;BME280;46518;48.842;8.926;2023-03-14T08:43:32;95203.09;;;11.21;74.22
1401;BME280;46518;48.842;8.926;2023-03-14T08:46:01;95214.63;;;10.84;74.12
1401;BME280;46518;48.842;8.926;2023-03-14T08:48:29;95221.38;;;10.76;75.94
1401;BME280;46518;48.842;8.926;2023-03-14T08:51:04;95213.06;;;10.97;75.82
1401;BME280;46518;48.842;8.926;2023-03-14T08:53:32;95215.91;;;10.59;75.81
1401;BME280;46518;48.842;8.926;2023-03-14T08:56:00;95216.69;;;10.73;78.43
1401;BME280;46518;48.842;8.926;2023-03-14T08:58:29;95220.75;;;10.52;75.30
1401;BME280;46518;48.842;8.926;2023-03-14T09:00:58;95225.13;;;10.43;80.74
1401;BME280;46518;48.842;8.926;2023-03-14T09:03:27;95235.81;;;10.32;81.71
1401;BME280;46518;48.842;8.926;2023-03-14T09:05:55;95236.09;;;9.98;81.23
1401;BME280;46518;48.842;8.926;2023-03-14T09:08:23;95239.34;;;10.09;82.09
1401;BME280;46518;48.842;8.926;2023-03-14T09:10:51;95246.84;;;10.15;82.11
1401;BME280;46518;48.842;8.926;2023-03-14T09:13:20;95245.97;;;10.20;81.61
1401;BME280;46518;48.842;8.926;2023-03-14T09:15:50;95254.91;;;10.05;82.70
1401;BME280;46518;48.842;8.926;2023-03-14T09:18:20;95266.13;;;10.11;81.12
1401;BME280;46518;48.842;8.926;2023-03-14T09:20:49;95248.25;;;9.94;82.33
1401;BME280;46518;48.842;8.926;2023-03-14T09:23:17;95265.56;;;9.95;82.94
1401;BME280;46518;48.842;8.926;2023-03-14T09:25:46;95265.91;;;10.07;83.47
1401;BME280;46518;48.842;8.926;2023-03-14T09:28:14;95273.75;;;10.26;82.36
1401;BME280;46518;48.842;8.926;2023-03-14T09:30:42;95274.03;;;10.25;80.96
1401;BME280;46518;48.842;8.926;2023-03-14T09:33:11;95285.06;;;10.08;82.98
1401;BME280;46518;48.842;8.926;2023-03-14T09:35:40;95282.59;;;10.17;84.16
1401;BME280;46518;48.842;8.926;2023-03-14T09:38:08;95289.97;;;10.33;82.50
1401;BME280;46518;48.842;8.926;2023-03-14T09:40:37;95294.22;;;10.10;83.45
1401;BME280;46518;48.842;8.926;2023-03-14T09:43:08;95299.84;;;10.23;83.38
1401;BME280;46518;48.842;8.926;2023-03-14T09:45:40;95306.19;;;10.03;84.50
1401;BME280;46518;48.842;8.926;2023-03-14T09:48:15;95308.81;;;10.03;85.97
1401;BME280;46518;48.842;8.926;2023-03-14T09:50:48;95297.78;;;10.20;84.70
1401;BME280;46518;48.842;8.926;2023-03-14T09:53:19;95297.66;;;10.30;85.65
1401;BME280;46518;48.842;8.926;2023-03-14T09:55:49;95292.88;;;10.32;84.16
1401;BME280;46518;48.842;8.926;2023-03-14T09:58:20;95294.00;;;10.45;86.29
1401;BME280;46518;48.842;8.926;2023-03-14T10:00:50;95284.66;;;10.52;86.13
1401;BME280;46518;48.842;8.926;2023-03-14T10:03:25;95286.81;;;10.64;85.05
1401;BME280;46518;48.842;8.926;2023-03-14T10:05:55;95281.78;;;10.95;86.76
1401;BME280;46518;48.842;8.926;2023-03-14T10:08:24;95272.41;;;10.75;81.73
1401;BME280;46518;48.842;8.926;2023-03-14T10:10:52;95272.41;;;10.75;82.62
1401;BME280;46518;48.842;8.926;2023-03-14T10:13:23;95279.75;;;10.78;80.74
1401;BME280;46518;48.842;8.926;2023-03-14T10:15:54;95275.63;;;10.72;80.67
1401;BME280;46518;48.842;8.926;2023-03-14T10:18:23;95280.81;;;11.05;81.59
1401;BME280;46518;48.842;8.926;2023-03-14T10:21:05;95268.25;;;11.16;80.22
1401;BME280;46518;48.842;8.926;2023-03-14T10:23:34;95272.91;;;10.77;83.28
1401;BME280;46518;48.842;8.926;2023-03-14T10:26:06;95276.13;;;10.74;84.76
1401;BME280;46518;48.842;8.926;2023-03-14T10:28:39;95279.63;;;10.56;85.75
1401;BME280;46518;48.842;8.926;2023-03-14T10:31:08;95269.38;;;10.54;86.84
1401;BME280;46518;48.842;8.926;2023-03-14T10:33:37;95273.38;;;10.66;86.57
1401;BME280;46518;48.842;8.926;2023-03-14T10:36:18;95267.53;;;10.83;88.34
1401;BME280;46518;48.842;8.926;2023-03-14T10:38:47;95272.22;;;10.86;85.49
1401;BME280;46518;48.842;8.926;2023-03-14T10:41:17;95298.47;;;10.91;87.25
1401;BME280;46518;48.842;8.926;2023-03-14T10:43:49;95289.25;;;10.61;84.67
1401;BME280;46518;48.842;8.926;2023-03-14T10:46:19;95291.59;;;10.48;88.36
1401;BME280;46518;48.842;8.926;2023-03-14T10:49:07;95300.41;;;10.39;88.03
1401;BME280;46518;48.842;8.926;2023-03-14T10:51:37;95298.34;;;10.35;89.74
1401;BME280;46518;48.842;8.926;2023-03-14T10:54:13;95314.56;;;10.05;96.05
1401;BME280;46518;48.842;8.926;2023-03-14T10:56:42;95316.25;;;9.96;93.64
1401;BME280;46518;48.842;8.926;2023-03-14T10:59:13;95317.69;;;9.88;95.59
1401;BME280;46518;48.842;8.926;2023-03-14T11:01:48;95325.00;;;9.72;98.47
1401;BME280;46518;48.842;8.926;2023-03-14T11:04:25;95329.81;;;9.65;96.11
1401;BME280;46518;48.842;8.926;2023-03-14T11:07:03;95330.91;;;9.64;97.79
1401;BME280;46518;48.842;8.926;2023-03-14T11:09:41;95329.06;;;9.64;99.06
1401;BME280;46518;48.842;8.926;2023-03-14T11:12:25;95329.00;;;9.45;98.82
1401;BME280;46518;48.842;8.926;2023-03-14T11:15:01;95339.31;;;9.42;99.28
1401;BME280;46518;48.842;8.926;2023-03-14T11:17:34;95339.13;;;9.33;100.00
1401;BME280;46518;48.842;8.926;2023-03-14T11:20:35;95336.75;;;9.37;100.00
1401;BME280;46518;48.842;8.926;2023-03-14T11:23:12;95341.59;;;9.24;100.00
1401;BME280;46518;48.842;8.926;2023-03-14T11:25:48;95335.53;;;9.29;100.00
1401;BME280;46518;48.842;8.926;2023-03-14T11:28:23;95342.44;;;9.20;100.00
1401;BME280;46518;48.842;8.926;2023-03-14T11:30:56;95338.38;;;9.33;99.49
1401;BME280;46518;48.842;8.926;2023-03-14T11:33:33;95350.13;;;9.35;99.98
1401;BME280;46518;48.842;8.926;2023-03-14T11:36:07;95344.25;;;9.43;100.00
1401;BME280;46518;48.842;8.926;2023-03-14T11:38:40;95347.34;;;9.50;100.00
1401;BME280;46518;48.842;8.926;2023-03-14T11:41:14;95342.81;;;9.56;100.00
1401;BME280;46518;48.842;8.926;2023-03-14T11:43:47;95344.78;;;9.45;99.94
1401;BME280;46518;48.842;8.926;2023-03-14T11:46:20;95350.97;;;9.31;100.00
1401;BME280;46518;48.842;8.926;2023-03-14T11:48:58;95349.63;;;9.33;100.00
1401;BME280;46518;48.842;8.926;2023-03-14T11:51:29;95359.22;;;9.24;100.00
1401;BME280;46518;48.842;8.926;2023-03-14T11:54:07;95371.00;;;9.26;100.00
1401;BME280;46518;48.842;8.926;2023-03-14T11:56:44;95369.16;;;9.27;100.00
1401;BME280;46518;48.842;8.926;2023-03-14T11:59:18;95383.66;;;9.19;100.00
1401;BME280;46518;48.842;8.926;2023-03-14T12:01:57;95395.81;;;9.10;100.00
1401;BME280;46518;48.842;8.926;2023-03-14T12:04:49;95408.25;;;8.99;100.00
1401;BME280;46518;48.842;8.926;2023-03-14T12:07:21;95413.03;;;8.92;100.00
1401;BME280;46518;48.842;8.926;2023-03-14T12:09:53;95410.00;;;8.80;100.00
1401;BME280;46518;48.842;8.926;2023-03-14T12:12:24;95435.53;;;8.69;100.00
1401;BME280;46518;48.842;8.926;2023-03-14T12:14:55;95439.47;;;8.67;100.00
1401;BME280;46518;48.842;8.926;2023-03-14T12:17:26;95450.91;;;8.47;100.00
1401;BME280;46518;48.842;8.926;2023-03-14T12:20:04;95488.19;;;8.23;100.00
1401;BME280;46518;48.842;8.926;2023-03-14T12:22:35;95446.41;;;7.97;98.24
1401;BME280;46518;48.842;8.926;2023-03-14T12:25:14;95485.69;;;8.03;100.00
1401;BME280;46518;48.842;8.926;2023-03-14T12:27:47;95513.75;;;7.97;98.28
1401;BME280;46518;48.842;8.926;2023-03-14T12:30:23;95511.25;;;7.46;89.19
1401;BME280;46518;48.842;8.926;2023-03-14T12:36:01;95520.66;;;7.62;88.60
1401;BME280;46518;48.842;8.926;2023-03-14T12:38:47;95499.91;;;7.76;83.53
1401;BME280;46518;48.842;8.926;2023-03-14T12:41:23;95513.50;;;7.88;82.80
1401;BME280;46518;48.842;8.926;2023-03-14T12:43:53;95516.03;;;8.14;79.90
1401;BME280;46518;48.842;8.926;2023-03-14T12:46:23;95519.84;;;8.37;84.06
1401;BME280;46518;48.842;8.926;2023-03-14T12:49:03;95523.22;;;8.48;75.47
1401;BME280;46518;48.842;8.926;2023-03-14T12:51:35;95515.63;;;8.46;77.38
1401;BME280;46518;48.842;8.926;2023-03-14T12:54:15;95560.94;;;8.57;77.13
1401;BME280;46518;48.842;8.926;2023-03-14T12:57:10;95523.53;;;8.41;70.29
1401;BME280;46518;48.842;8.926;2023-03-14T12:59:47;95551.88;;;8.24;69.86
1401;BME280;46518;48.842;8.926;2023-03-14T13:02:24;95556.28;;;8.33;71.99
1401;BME280;46518;48.842;8.926;2023-03-14T13:05:05;95606.91;;;8.18;68.21
1401;BME280;46518;48.842;8.926;2023-03-14T13:08:11;95583.59;;;8.27;67.83
1401;BME280;46518;48.842;8.926;2023-03-14T13:10:42;95603.25;;;8.25;68.13
1401;BME280;46518;48.842;8.926;2023-03-14T13:13:20;95599.31;;;8.22;67.47
1401;BME280;46518;48.842;8.926;2023-03-14T13:15:54;95626.56;;;8.21;65.58
1401;BME280;46518;48.842;8.926;2023-03-14T13:18:27;95617.94;;;8.15;65.14
1401;BME280;46518;48.842;8.926;2023-03-14T13:21:01;95638.91;;;8.10;61.62
1401;BME280;46518;48.842;8.926;2023-03-14T13:23:32;95645.75;;;7.86;61.28
1401;BME280;46518;48.842;8.926;2023-03-14T13:26:01;95650.47;;;7.84;63.34
1401;BME280;46518;48.842;8.926;2023-03-14T13:28:31;95664.91;;;7.86;63.26
1401;BME280;46518;48.842;8.926;2023-03-14T13:31:03;95679.56;;;7.82;63.54
1401;BME280;46518;48.842;8.926;2023-03-14T13:33:33;95675.09;;;7.93;67.22
1401;BME280;46518;48.842;8.926;2023-03-14T13:36:03;95696.81;;;8.04;64.24
1401;BME280;46518;48.842;8.926;2023-03-14T13:38:35;95680.06;;;8.15;60.36
1401;BME280;46518;48.842;8.926;2023-03-14T13:41:05;95737.72;;;8.05;60.90
1401;BME280;46518;48.842;8.926;2023-03-14T13:43:36;95713.84;;;7.81;57.33
1401;BME280;46518;48.842;8.926;2023-03-14T13:46:13;95709.94;;;7.73;58.69
1401;BME280;46518;48.842;8.926;2023-03-14T13:48:44;95749.47;;;7.71;57.43